createdAt,value
2023-01-23T00:00:58.339Z,1.20
2023-01-23T00:05:01.348Z,1.19
2023-01-23T00:09:05.231Z,1.21
2023-01-23T00:13:09.826Z,1.22
2023-01-23T00:17:13.132Z,1.25
2023-01-23T00:21:17.823Z,1.21
2023-01-23T00:25:20.796Z,1.21
2023-01-23T00:29:25.356Z,1.19
2023-01-23T00:33:28.653Z,1.30
2023-01-23T00:37:31.690Z,1.25
2023-01-23T00:41:35.249Z,1.27
2023-01-23T00:45:39.640Z,1.26
2023-01-23T00:49:42.660Z,1.29
2023-01-23T00:53:46.705Z,1.30
2023-01-23T00:57:49.779Z,1.33
2023-01-23T01:01:54.175Z,1.30
2023-01-23T01:05:57.474Z,1.31
2023-01-23T01:10:00.469Z,1.36
2023-01-23T01:14:03.549Z,1.36
2023-01-23T01:18:08.031Z,1.36
2023-01-23T01:22:11.170Z,1.36
2023-01-23T01:26:14.479Z,1.41
2023-01-23T01:30:19.872Z,1.46
2023-01-23T01:34:25.060Z,1.55
2023-01-23T01:38:29.062Z,1.44
2023-01-23T01:42:40.355Z,1.41
2023-01-23T01:46:43.468Z,1.42
2023-01-23T01:50:48.129Z,1.43
2023-01-23T01:54:54.902Z,1.42
2023-01-23T01:58:59.684Z,1.41
2023-01-23T02:03:06.325Z,1.41
2023-01-23T02:07:18.367Z,1.45
2023-01-23T02:11:21.595Z,1.51
2023-01-23T02:15:25.817Z,1.43
2023-01-23T02:19:41.191Z,1.41
2023-01-23T02:23:54.513Z,1.46
2023-01-23T02:28:02.473Z,1.43
2023-01-23T02:32:11.947Z,1.43
2023-01-23T02:36:16.086Z,1.42
2023-01-23T02:40:21.412Z,1.44
2023-01-23T02:44:28.085Z,1.46
2023-01-23T02:48:41.131Z,1.52
2023-01-23T02:52:44.255Z,1.45
2023-01-23T02:56:47.465Z,1.50
2023-01-23T03:00:52.616Z,1.47
2023-01-23T03:04:55.779Z,1.45
2023-01-23T03:09:00.192Z,1.45
2023-01-23T03:13:07.345Z,1.45
2023-01-23T03:17:14.860Z,1.41
2023-01-23T03:21:18.459Z,1.45
2023-01-23T03:25:22.137Z,1.45
2023-01-23T03:29:44.190Z,1.40
2023-01-23T03:33:51.134Z,1.39
2023-01-23T03:37:54.227Z,1.39
2023-01-23T03:41:56.412Z,1.39
2023-01-23T03:46:02.074Z,1.36
2023-01-23T03:50:08.818Z,1.42
2023-01-23T03:54:14.728Z,1.42
2023-01-23T03:58:18.186Z,1.41
2023-01-23T04:02:22.746Z,1.48
2023-01-23T04:06:27.294Z,1.46
2023-01-23T04:10:30.416Z,1.44
2023-01-23T04:14:39.549Z,1.41
2023-01-23T04:18:43.275Z,1.23
2023-01-23T04:22:47.957Z,0.99
2023-01-23T04:26:51.828Z,0.98
2023-01-23T04:30:55.195Z,0.85
2023-01-23T04:35:05.900Z,1.00
2023-01-23T04:39:13.736Z,1.05
2023-01-23T04:43:20.488Z,1.15
2023-01-23T04:47:26.804Z,1.16
2023-01-23T04:51:29.950Z,1.20
2023-01-23T04:55:34.911Z,1.19
2023-01-23T04:59:41.379Z,1.27
2023-01-23T05:03:44.529Z,1.28
2023-01-23T05:07:48.156Z,1.36
2023-01-23T05:11:54.384Z,1.44
2023-01-23T05:16:00.264Z,1.38
2023-01-23T05:20:04.756Z,1.42
2023-01-23T05:24:08.406Z,1.47
2023-01-23T05:28:12.856Z,1.55
2023-01-23T05:32:21.879Z,1.47
2023-01-23T05:36:43.415Z,1.50
2023-01-23T05:40:46.494Z,1.54
2023-01-23T05:44:53.438Z,1.55
2023-01-23T05:49:04.123Z,1.54
2023-01-23T05:53:07.717Z,1.54
2023-01-23T05:57:12.702Z,1.56
2023-01-23T06:01:55.894Z,1.55
2023-01-23T06:06:10.819Z,1.60
2023-01-23T06:10:13.908Z,1.61
2023-01-23T06:14:18.030Z,1.67
2023-01-23T06:18:23.623Z,1.63
2023-01-23T06:22:29.049Z,1.70
2023-01-23T06:26:48.101Z,1.78
2023-01-23T06:30:53.018Z,1.78
2023-01-23T06:35:07.525Z,1.86
2023-01-23T06:39:16.658Z,1.88
2023-01-23T06:43:21.302Z,1.94
2023-01-23T06:47:26.069Z,1.93
2023-01-23T06:51:37.373Z,2.00
2023-01-23T06:55:43.794Z,1.97
2023-01-23T06:59:51.988Z,1.99
2023-01-23T07:03:58.485Z,2.01
2023-01-23T07:08:05.119Z,1.92
2023-01-23T07:12:10.156Z,1.96
2023-01-23T07:16:15.093Z,1.95
2023-01-23T07:20:19.870Z,1.93
2023-01-23T07:24:32.925Z,1.94
2023-01-23T07:28:37.739Z,1.92
2023-01-23T07:32:42.817Z,1.93
2023-01-23T07:36:47.515Z,1.95
2023-01-23T07:40:53.946Z,1.97
2023-01-23T07:44:58.629Z,1.93
2023-01-23T07:49:03.183Z,1.98
2023-01-23T07:53:08.383Z,1.99
2023-01-23T07:57:15.287Z,1.98
2023-01-23T08:01:21.444Z,2.04
2023-01-23T08:05:26.953Z,2.06
2023-01-23T08:09:31.970Z,2.10
2023-01-23T08:13:38.562Z,2.09
2023-01-23T08:17:43.455Z,2.13
2023-01-23T08:21:48.369Z,2.16
2023-01-23T08:25:55.171Z,2.16
2023-01-23T08:30:01.617Z,2.25
2023-01-23T08:34:04.943Z,2.23
2023-01-23T08:38:10.891Z,2.25
2023-01-23T08:42:15.983Z,2.25
2023-01-23T08:46:22.002Z,2.26
2023-01-23T08:50:25.317Z,2.31
2023-01-23T08:54:29.938Z,2.29
2023-01-23T08:58:34.896Z,2.36
2023-01-23T09:02:40.865Z,2.39
2023-01-23T09:06:46.135Z,2.41
2023-01-23T09:10:50.840Z,2.45
2023-01-23T09:14:55.338Z,2.52
2023-01-23T09:19:01.676Z,2.51
2023-01-23T09:23:06.563Z,2.49
2023-01-23T09:27:11.507Z,2.52
2023-01-23T09:31:16.444Z,2.50
2023-01-23T09:35:24.154Z,2.64
2023-01-23T09:39:28.675Z,2.68
2023-01-23T09:43:46.631Z,2.77
2023-01-23T09:47:54.880Z,2.84
2023-01-23T09:52:06.016Z,2.88
2023-01-23T09:56:21.666Z,3.02
2023-01-23T10:00:29.499Z,3.07
2023-01-23T10:04:34.083Z,3.12
2023-01-23T10:08:50.170Z,3.15
2023-01-23T10:13:03.900Z,3.01
2023-01-23T10:17:16.065Z,3.11
2023-01-23T10:21:26.401Z,3.26
2023-01-23T10:25:38.040Z,3.68
2023-01-23T10:29:47.256Z,3.39
2023-01-23T10:34:04.942Z,3.73
2023-01-23T10:38:19.639Z,3.57
2023-01-23T10:42:28.913Z,3.66
2023-01-23T10:46:37.971Z,3.72
2023-01-23T10:50:42.096Z,3.82
2023-01-23T10:54:47.963Z,3.62
2023-01-23T10:58:57.729Z,3.59
2023-01-23T11:03:26.494Z,3.74
2023-01-23T11:07:32.469Z,3.71
2023-01-23T11:11:37.351Z,3.65
2023-01-23T11:15:43.635Z,3.67
2023-01-23T11:19:49.895Z,3.79
2023-01-23T11:24:09.564Z,3.87
2023-01-23T11:28:27.013Z,3.79
2023-01-23T11:32:36.591Z,3.90
2023-01-23T11:36:46.711Z,3.88
2023-01-23T11:40:49.951Z,3.93
2023-01-23T11:44:53.594Z,4.07
2023-01-23T11:49:23.051Z,3.84
2023-01-23T11:53:42.379Z,3.91
2023-01-23T11:58:00.691Z,4.07
2023-01-23T12:02:48.444Z,4.15
2023-01-23T12:07:21.306Z,4.07
2023-01-23T12:11:24.623Z,4.20
2023-01-23T12:15:39.288Z,4.27
2023-01-23T12:19:56.344Z,4.36
2023-01-23T12:24:14.447Z,4.37
2023-01-23T12:28:30.464Z,4.53
2023-01-23T12:32:46.362Z,4.35
2023-01-23T12:37:22.256Z,4.23
2023-01-23T12:41:40.149Z,4.24
2023-01-23T12:45:49.150Z,4.03
2023-01-23T12:49:56.552Z,4.06
2023-01-23T12:54:01.739Z,4.10
2023-01-23T12:58:09.403Z,3.94
2023-01-23T13:02:20.165Z,4.03
2023-01-23T13:06:34.999Z,4.03
2023-01-23T13:11:11.809Z,3.90
2023-01-23T13:15:40.375Z,3.90
2023-01-23T13:20:01.417Z,3.86
2023-01-23T13:24:49.199Z,3.72
2023-01-23T13:28:54.983Z,3.84
2023-01-23T13:33:03.892Z,3.81
2023-01-23T13:37:51.253Z,3.86
2023-01-23T13:42:27.750Z,3.66
2023-01-23T14:22:01.011Z,3.68
2023-01-23T14:26:07.168Z,3.70
2023-01-23T14:30:17.464Z,3.53
2023-01-23T14:34:23.025Z,3.67
2023-01-23T14:38:30.939Z,3.57
2023-01-23T14:42:35.319Z,3.63
2023-01-23T14:46:40.379Z,3.60
2023-01-23T14:50:44.077Z,3.66
2023-01-23T14:54:53.822Z,3.44
2023-01-23T14:59:02.354Z,3.50
2023-01-23T15:03:06.290Z,3.53
2023-01-23T15:07:18.571Z,3.50
2023-01-23T15:11:27.030Z,3.50
2023-01-23T15:15:33.123Z,3.49
2023-01-23T15:19:38.681Z,3.41
2023-01-23T15:23:42.103Z,3.39
2023-01-23T15:27:45.218Z,3.38
2023-01-23T15:31:51.522Z,3.39
2023-01-23T15:36:03.694Z,3.35
2023-01-23T15:40:17.944Z,3.32
2023-01-23T15:44:23.375Z,3.26
2023-01-23T15:48:27.710Z,3.29
2023-01-23T15:52:32.403Z,3.26
2023-01-23T15:56:36.605Z,3.20
2023-01-23T16:00:40.485Z,3.21
2023-01-23T16:04:45.180Z,3.18
2023-01-23T16:08:54.943Z,3.23
2023-01-23T16:13:00.916Z,3.19
2023-01-23T16:17:15.880Z,3.24
2023-01-23T16:21:31.802Z,3.19
2023-01-23T16:25:44.483Z,3.20
2023-01-23T16:29:49.646Z,3.19
2023-01-23T16:33:52.955Z,3.17
2023-01-23T16:37:57.499Z,3.16
2023-01-23T16:42:01.097Z,3.15
2023-01-23T16:46:04.289Z,3.16
2023-01-23T16:50:08.128Z,3.10
2023-01-23T16:54:18.808Z,3.09
2023-01-23T16:58:25.092Z,3.06
2023-01-23T17:02:32.111Z,3.06
2023-01-23T17:06:35.159Z,3.00
2023-01-23T17:10:46.188Z,3.06
2023-01-23T17:14:52.649Z,3.03
2023-01-23T17:18:59.870Z,3.04
2023-01-23T17:23:03.101Z,3.06
2023-01-23T17:27:07.828Z,3.04
2023-01-23T17:31:19.944Z,3.02
2023-01-23T17:35:27.583Z,3.00
2023-01-23T17:39:30.634Z,2.97
2023-01-23T17:43:34.998Z,2.91
2023-01-23T17:47:38.110Z,2.90
2023-01-23T17:51:41.192Z,2.89
2023-01-23T17:55:48.085Z,2.89
2023-01-23T17:59:55.443Z,2.85
2023-01-23T18:03:59.312Z,2.87
2023-01-23T18:08:02.495Z,2.82
2023-01-23T18:12:07.894Z,2.81
2023-01-23T18:16:18.278Z,2.79
2023-01-23T18:20:23.416Z,2.82
2023-01-23T18:24:30.184Z,2.81
2023-01-23T18:28:44.578Z,2.82
2023-01-23T18:33:05.754Z,2.81
2023-01-23T18:37:20.317Z,2.78
2023-01-23T18:41:25.620Z,2.77
2023-01-23T18:45:30.688Z,2.75
2023-01-23T18:49:38.001Z,2.74
2023-01-23T18:53:50.034Z,2.77
2023-01-23T18:58:07.261Z,2.73
2023-01-23T19:02:21.936Z,2.71
2023-01-23T19:06:29.327Z,2.74
2023-01-23T19:10:48.126Z,2.74
2023-01-23T19:15:16.333Z,2.72
2023-01-23T19:19:27.446Z,2.73
2023-01-23T19:23:40.712Z,2.72
2023-01-23T19:27:44.062Z,2.70
2023-01-23T19:32:02.850Z,2.73
2023-01-23T19:36:11.333Z,2.68
2023-01-23T19:40:17.248Z,2.67
2023-01-23T19:44:24.219Z,2.70
2023-01-23T19:48:27.366Z,2.69
2023-01-23T19:52:30.422Z,2.63
2023-01-23T19:56:35.051Z,2.62
2023-01-23T20:00:38.109Z,2.64
2023-01-23T20:04:41.191Z,2.62
2023-01-23T20:08:44.315Z,2.67
2023-01-23T20:12:51.944Z,2.64
2023-01-23T20:16:55.101Z,2.69
2023-01-23T20:20:59.914Z,2.67
2023-01-23T20:25:03.125Z,2.71
2023-01-23T20:29:09.303Z,2.69
2023-01-23T20:33:13.185Z,2.71
2023-01-23T20:37:17.856Z,2.70
2023-01-23T20:41:22.040Z,2.70
2023-01-23T20:45:26.796Z,2.69
2023-01-23T20:49:29.932Z,2.71
2023-01-23T20:53:34.727Z,2.73
2023-01-23T20:57:55.251Z,2.72
2023-01-23T21:02:17.156Z,2.76
2023-01-23T21:06:20.958Z,2.76
2023-01-23T21:10:24.020Z,2.77
2023-01-23T21:14:27.155Z,2.74
2023-01-23T21:18:31.888Z,2.75
2023-01-23T21:22:34.966Z,2.74
2023-01-23T21:26:38.383Z,2.71
2023-01-23T21:30:41.599Z,2.73
2023-01-23T21:34:46.176Z,2.72
2023-01-23T21:38:51.258Z,2.73
2023-01-23T21:42:54.413Z,2.71
2023-01-23T21:46:57.402Z,2.72
2023-01-23T21:51:10.428Z,2.73
2023-01-23T21:55:13.492Z,2.74
2023-01-23T21:59:16.702Z,2.72
2023-01-23T22:03:20.881Z,2.75
2023-01-23T22:07:25.557Z,2.75
2023-01-23T22:11:29.019Z,2.75
2023-01-23T22:15:32.043Z,2.71
2023-01-23T22:19:35.125Z,2.72
2023-01-23T22:23:39.606Z,2.75
2023-01-23T22:27:42.654Z,2.77
2023-01-23T22:31:45.850Z,2.72
2023-01-23T22:35:48.990Z,2.83
2023-01-23T22:39:53.353Z,2.77
2023-01-23T22:43:59.277Z,2.78
2023-01-23T22:48:02.439Z,2.76
2023-01-23T22:52:07.869Z,2.79
2023-01-23T22:56:13.291Z,2.83
2023-01-23T23:00:17.883Z,2.78
2023-01-23T23:04:20.902Z,2.79
2023-01-23T23:08:24.046Z,2.76
2023-01-23T23:12:29.108Z,2.77
2023-01-23T23:16:33.423Z,2.77
2023-01-23T23:20:36.446Z,2.76
2023-01-23T23:24:39.809Z,2.73
2023-01-23T23:28:44.470Z,2.75
2023-01-23T23:32:47.516Z,2.74
2023-01-23T23:36:50.972Z,2.78
2023-01-23T23:40:57.682Z,2.74
2023-01-23T23:45:02.060Z,2.78
2023-01-23T23:49:05.126Z,2.73
2023-01-23T23:53:08.152Z,2.73
2023-01-23T23:57:11.197Z,2.79
